createdAt,value
2022-10-06T00:00:47.215Z,75.46
2022-10-06T00:03:15.172Z,75.39
2022-10-06T00:05:43.246Z,75.77
2022-10-06T00:08:12.509Z,75.90
2022-10-06T00:10:40.365Z,75.59
2022-10-06T00:13:08.733Z,75.15
2022-10-06T00:15:36.776Z,75.50
2022-10-06T00:18:04.546Z,75.16
2022-10-06T00:20:33.247Z,74.94
2022-10-06T00:23:00.907Z,75.27
2022-10-06T00:25:30.093Z,75.09
2022-10-06T00:27:57.838Z,74.60
2022-10-06T00:30:27.713Z,74.98
2022-10-06T00:32:57.070Z,74.98
2022-10-06T00:35:25.451Z,74.76
2022-10-06T00:37:53.268Z,74.59
2022-10-06T00:40:21.127Z,74.62
2022-10-06T00:42:53.530Z,74.62
2022-10-06T00:45:26.344Z,74.46
2022-10-06T00:47:54.671Z,74.75
2022-10-06T00:50:22.408Z,74.52
2022-10-06T00:52:50.307Z,74.48
2022-10-06T00:55:20.218Z,74.47
2022-10-06T00:57:48.557Z,74.30
2022-10-06T01:00:17.890Z,74.37
2022-10-06T01:02:49.752Z,74.09
2022-10-06T01:05:19.766Z,74.46
2022-10-06T01:07:47.434Z,74.28
2022-10-06T01:10:15.086Z,74.29
2022-10-06T01:12:42.828Z,74.15
2022-10-06T01:15:11.245Z,74.08
2022-10-06T01:17:43.466Z,73.76
2022-10-06T01:20:12.929Z,73.29
2022-10-06T01:22:44.156Z,72.93
2022-10-06T01:25:14.077Z,73.23
2022-10-06T01:27:44.197Z,72.85
2022-10-06T01:30:15.884Z,72.93
2022-10-06T01:32:44.099Z,72.95
2022-10-06T01:35:12.407Z,73.11
2022-10-06T01:37:40.053Z,72.91
2022-10-06T01:40:10.074Z,73.01
2022-10-06T01:42:38.320Z,72.88
2022-10-06T01:45:06.674Z,73.26
2022-10-06T01:47:34.474Z,73.09
2022-10-06T01:50:02.252Z,72.93
2022-10-06T01:52:29.869Z,73.22
2022-10-06T01:54:57.792Z,72.87
2022-10-06T01:57:26.807Z,72.76
2022-10-06T01:59:55.061Z,72.80
2022-10-06T02:02:23.094Z,72.54
2022-10-06T02:04:50.778Z,72.90
2022-10-06T02:07:18.815Z,72.42
2022-10-06T02:09:46.414Z,72.73
2022-10-06T02:12:13.989Z,72.59
2022-10-06T02:14:43.013Z,72.15
2022-10-06T02:17:11.220Z,71.99
2022-10-06T02:19:38.877Z,72.13
2022-10-06T02:22:06.487Z,72.16
2022-10-06T02:24:34.178Z,71.67
2022-10-06T02:27:01.785Z,71.60
2022-10-06T02:29:29.399Z,71.25
2022-10-06T02:31:58.423Z,71.11
2022-10-06T02:34:26.134Z,70.98
2022-10-06T02:36:54.244Z,70.88
2022-10-06T02:39:21.905Z,70.83
2022-10-06T02:41:49.527Z,70.52
2022-10-06T02:44:17.131Z,70.81
2022-10-06T02:46:44.881Z,70.75
2022-10-06T02:49:14.402Z,70.90
2022-10-06T02:51:42.047Z,70.55
2022-10-06T02:54:09.936Z,70.32
2022-10-06T02:56:38.334Z,70.10
2022-10-06T02:59:05.930Z,70.42
2022-10-06T03:01:33.660Z,70.13
2022-10-06T03:04:01.582Z,70.10
2022-10-06T03:06:31.881Z,69.92
2022-10-06T03:09:00.857Z,69.74
2022-10-06T03:11:29.782Z,69.56
2022-10-06T03:13:57.499Z,69.78
2022-10-06T03:16:27.135Z,69.61
2022-10-06T03:18:55.934Z,69.61
2022-10-06T03:21:25.944Z,69.34
2022-10-06T03:23:56.499Z,69.20
2022-10-06T03:26:27.919Z,69.54
2022-10-06T03:28:55.737Z,69.12
2022-10-06T03:31:24.171Z,69.39
2022-10-06T03:33:52.178Z,69.10
2022-10-06T03:36:21.615Z,69.04
2022-10-06T03:38:49.383Z,69.02
2022-10-06T03:41:20.274Z,69.18
2022-10-06T03:43:49.347Z,69.27
2022-10-06T03:46:19.811Z,69.27
2022-10-06T03:48:48.678Z,69.06
2022-10-06T03:51:17.797Z,69.55
2022-10-06T03:53:46.725Z,69.31
2022-10-06T03:56:17.105Z,69.02
2022-10-06T03:58:47.715Z,69.00
2022-10-06T04:01:19.172Z,68.86
2022-10-06T04:03:49.846Z,68.69
2022-10-06T04:06:18.998Z,68.94
2022-10-06T04:08:47.841Z,68.51
2022-10-06T04:11:19.047Z,68.53
2022-10-06T04:13:48.753Z,68.67
2022-10-06T04:16:18.127Z,69.17
2022-10-06T04:18:46.879Z,69.00
2022-10-06T04:21:14.953Z,68.49
2022-10-06T04:23:42.784Z,68.52
2022-10-06T04:26:13.419Z,68.63
2022-10-06T04:28:42.239Z,68.75
2022-10-06T04:31:14.878Z,68.33
2022-10-06T04:33:42.649Z,69.00
2022-10-06T04:36:12.424Z,68.69
2022-10-06T04:38:40.074Z,68.78
2022-10-06T04:41:08.537Z,68.48
2022-10-06T04:43:36.372Z,68.84
2022-10-06T04:46:24.047Z,68.56
2022-10-06T04:48:54.885Z,68.60
2022-10-06T04:51:23.643Z,68.60
2022-10-06T04:53:51.470Z,68.88
2022-10-06T04:56:20.830Z,69.02
2022-10-06T04:58:49.729Z,68.66
2022-10-06T05:01:18.941Z,69.13
2022-10-06T05:03:47.334Z,68.97
2022-10-06T05:06:18.290Z,68.70
2022-10-06T05:08:48.977Z,68.80
2022-10-06T05:11:19.464Z,69.05
2022-10-06T05:13:50.331Z,68.79
2022-10-06T05:16:18.883Z,68.50
2022-10-06T05:18:46.589Z,69.32
2022-10-06T05:21:17.358Z,69.30
2022-10-06T05:23:45.891Z,69.12
2022-10-06T05:26:14.835Z,68.71
2022-10-06T05:28:42.562Z,68.96
2022-10-06T05:31:13.283Z,69.08
2022-10-06T05:33:41.403Z,68.88
2022-10-06T05:36:12.522Z,68.61
2022-10-06T05:38:41.995Z,69.14
2022-10-06T05:41:12.657Z,68.80
2022-10-06T05:43:40.912Z,68.64
2022-10-06T05:46:17.290Z,68.95
2022-10-06T05:48:47.516Z,68.84
2022-10-06T05:51:15.558Z,68.72
2022-10-06T05:53:44.577Z,68.62
2022-10-06T05:56:13.976Z,68.53
2022-10-06T05:58:42.944Z,68.81
2022-10-06T06:01:12.277Z,68.90
2022-10-06T06:03:40.809Z,69.01
2022-10-06T06:06:16.689Z,69.09
2022-10-06T06:08:46.267Z,68.97
2022-10-06T06:11:14.189Z,69.03
2022-10-06T06:13:41.868Z,69.67
2022-10-06T06:16:14.140Z,69.34
2022-10-06T06:18:41.981Z,69.38
2022-10-06T06:21:10.823Z,69.62
2022-10-06T06:23:39.685Z,69.26
2022-10-06T06:26:10.336Z,69.82
2022-10-06T06:28:38.393Z,69.55
2022-10-06T06:31:08.128Z,69.60
2022-10-06T06:33:37.668Z,69.66
2022-10-06T06:36:13.483Z,69.58
2022-10-06T06:38:41.092Z,69.75
2022-10-06T06:41:16.249Z,70.04
2022-10-06T06:43:43.880Z,70.14
2022-10-06T06:46:11.737Z,69.85
2022-10-06T06:48:39.483Z,69.86
2022-10-06T06:51:07.461Z,69.76
2022-10-06T06:53:35.793Z,69.83
2022-10-06T06:56:04.045Z,70.09
2022-10-06T06:58:33.549Z,69.67
2022-10-06T07:01:08.685Z,70.29
2022-10-06T07:03:56.683Z,70.14
2022-10-06T07:06:28.148Z,70.11
2022-10-06T07:08:56.795Z,70.23
2022-10-06T07:11:25.704Z,69.83
2022-10-06T07:13:55.936Z,69.98
2022-10-06T07:16:41.768Z,70.16
2022-10-06T07:19:28.864Z,70.17
2022-10-06T07:22:16.008Z,70.32
2022-10-06T07:25:01.802Z,69.41
2022-10-06T07:27:29.929Z,69.89
2022-10-06T07:29:58.938Z,70.37
2022-10-06T07:32:29.512Z,70.13
2022-10-06T07:34:58.141Z,69.80
2022-10-06T07:37:26.484Z,69.99
2022-10-06T07:39:54.168Z,69.95
2022-10-06T07:42:21.953Z,69.59
2022-10-06T07:45:09.674Z,69.68
2022-10-06T07:47:38.876Z,70.40
2022-10-06T07:50:07.340Z,69.54
2022-10-06T07:52:39.189Z,69.05
2022-10-06T07:55:07.897Z,69.49
2022-10-06T07:57:35.776Z,70.15
2022-10-06T08:00:05.669Z,69.32
2022-10-06T08:02:35.770Z,70.00
2022-10-06T08:05:06.656Z,69.16
2022-10-06T08:07:34.270Z,69.11
2022-10-06T08:10:01.947Z,69.08
2022-10-06T08:12:37.503Z,68.61
2022-10-06T08:15:07.528Z,68.29
2022-10-06T08:17:36.246Z,67.83
2022-10-06T08:20:09.231Z,68.77
2022-10-06T08:22:38.683Z,67.98
2022-10-06T08:25:07.613Z,68.08
2022-10-06T08:27:36.104Z,67.65
2022-10-06T08:30:04.680Z,67.59
2022-10-06T08:32:32.917Z,67.61
2022-10-06T08:35:00.544Z,67.21
2022-10-06T08:37:29.584Z,67.29
2022-10-06T08:39:57.529Z,67.08
2022-10-06T08:42:32.944Z,66.73
2022-10-06T08:45:02.611Z,66.21
2022-10-06T08:47:33.512Z,66.21
2022-10-06T08:50:01.432Z,66.64
2022-10-06T08:52:49.309Z,67.02
2022-10-06T08:55:30.654Z,66.17
2022-10-06T08:58:19.509Z,65.81
2022-10-06T09:00:47.152Z,67.31
2022-10-06T09:03:23.099Z,66.46
2022-10-06T09:05:53.136Z,65.75
2022-10-06T09:08:35.597Z,65.52
2022-10-06T09:11:15.223Z,65.96
2022-10-06T09:13:45.499Z,65.10
2022-10-06T09:16:16.924Z,65.13
2022-10-06T09:19:07.290Z,65.70
2022-10-06T09:21:39.730Z,66.01
2022-10-06T09:24:13.883Z,65.81
2022-10-06T09:26:45.365Z,64.94
2022-10-06T09:29:13.913Z,65.62
2022-10-06T09:31:43.083Z,64.82
2022-10-06T09:34:19.783Z,64.37
2022-10-06T09:37:07.442Z,66.53
2022-10-06T09:39:38.326Z,63.97
2022-10-06T09:42:14.550Z,63.15
2022-10-06T09:44:53.586Z,62.50
2022-10-06T09:47:40.935Z,62.82
2022-10-06T09:50:20.430Z,63.46
2022-10-06T09:53:06.899Z,62.71
2022-10-06T09:55:45.585Z,62.27
2022-10-06T09:58:21.004Z,63.06
2022-10-06T10:00:50.317Z,62.88
2022-10-06T10:03:18.111Z,61.13
2022-10-06T10:05:48.804Z,60.31
2022-10-06T10:08:23.211Z,59.13
2022-10-06T10:11:32.204Z,59.70
2022-10-06T10:14:00.395Z,58.66
2022-10-06T10:16:30.888Z,58.91
2022-10-06T10:19:00.106Z,59.04
2022-10-06T10:21:30.257Z,60.14
2022-10-06T10:23:58.983Z,59.47
2022-10-06T10:26:39.613Z,58.96
2022-10-06T10:29:18.687Z,60.11
2022-10-06T10:31:54.678Z,60.08
2022-10-06T10:34:38.212Z,58.75
2022-10-06T10:37:10.240Z,57.56
2022-10-06T10:39:41.528Z,58.95
2022-10-06T10:42:15.975Z,57.33
2022-10-06T10:44:49.687Z,58.01
2022-10-06T10:47:22.261Z,56.41
2022-10-06T10:49:54.780Z,56.74
2022-10-06T10:52:27.384Z,57.04
2022-10-06T10:55:04.899Z,56.37
2022-10-06T10:57:38.519Z,56.63
2022-10-06T11:00:09.439Z,55.12
2022-10-06T11:02:38.330Z,54.59
2022-10-06T11:05:15.273Z,55.41
2022-10-06T11:07:47.029Z,54.68
2022-10-06T11:10:18.858Z,54.10
2022-10-06T11:13:07.681Z,54.94
2022-10-06T11:15:45.818Z,55.62
2022-10-06T11:18:25.737Z,54.66
2022-10-06T11:20:55.167Z,55.72
2022-10-06T11:23:30.398Z,54.78
2022-10-06T11:26:07.207Z,54.88
2022-10-06T11:28:41.602Z,55.04
2022-10-06T11:31:21.796Z,54.15
2022-10-06T11:33:52.943Z,53.73
2022-10-06T11:36:29.808Z,54.35
2022-10-06T11:39:03.481Z,55.05
2022-10-06T11:41:34.859Z,53.57
2022-10-06T11:44:07.910Z,54.22
2022-10-06T11:46:42.619Z,55.10
2022-10-06T11:49:55.938Z,54.76
2022-10-06T11:52:50.957Z,55.36
2022-10-06T11:55:23.942Z,55.70
2022-10-06T11:58:37.394Z,54.98
2022-10-06T12:01:02.453Z,55.65
2022-10-06T12:03:48.480Z,55.56
2022-10-06T12:07:07.054Z,54.31
2022-10-06T12:09:46.075Z,54.10
2022-10-06T12:13:06.098Z,53.34
2022-10-06T12:18:57.963Z,52.11
2022-10-06T12:21:35.098Z,52.12
2022-10-06T12:24:17.294Z,54.04
2022-10-06T12:26:52.874Z,53.47
2022-10-06T12:29:34.483Z,52.14
2022-10-06T12:32:13.071Z,52.05
2022-10-06T12:34:58.985Z,52.78
2022-10-06T12:37:42.525Z,52.02
2022-10-06T12:40:46.605Z,52.67
2022-10-06T12:43:56.974Z,53.16
2022-10-06T12:46:45.711Z,52.06
2022-10-06T12:49:31.859Z,51.28
2022-10-06T12:52:11.350Z,52.46
2022-10-06T12:54:44.655Z,51.04
2022-10-06T12:57:18.590Z,51.82
2022-10-06T12:59:46.379Z,50.69
2022-10-06T13:02:19.023Z,51.27
2022-10-06T13:04:50.656Z,52.05
2022-10-06T13:07:20.629Z,51.33
2022-10-06T13:09:50.034Z,51.09
2022-10-06T13:12:23.416Z,52.57
2022-10-06T13:15:15.625Z,52.24
2022-10-06T13:17:44.996Z,51.93
2022-10-06T13:20:39.242Z,51.04
2022-10-06T13:23:28.614Z,50.54
2022-10-06T13:25:58.652Z,51.10
2022-10-06T13:28:29.204Z,50.65
2022-10-06T13:30:58.668Z,50.51
2022-10-06T13:33:28.455Z,49.83
2022-10-06T13:35:56.719Z,50.45
2022-10-06T13:38:25.827Z,51.22
2022-10-06T13:41:07.904Z,51.33
2022-10-06T13:43:46.240Z,52.22
2022-10-06T13:46:15.921Z,51.71
2022-10-06T13:48:45.853Z,51.62
2022-10-06T13:51:18.366Z,51.20
2022-10-06T13:53:48.409Z,50.63
2022-10-06T13:56:37.169Z,50.65
2022-10-06T13:59:29.474Z,52.67
2022-10-06T14:01:57.471Z,51.74
2022-10-06T14:04:25.144Z,50.75
2022-10-06T14:06:54.903Z,50.74
2022-10-06T14:09:26.267Z,50.70
2022-10-06T14:11:55.150Z,51.82
2022-10-06T14:14:22.742Z,50.41
2022-10-06T14:16:52.642Z,51.14
2022-10-06T14:19:45.246Z,50.53
2022-10-06T14:22:30.918Z,50.15
2022-10-06T14:24:59.895Z,49.48
2022-10-06T14:27:27.560Z,50.81
2022-10-06T14:29:57.514Z,50.61
2022-10-06T14:32:25.336Z,50.47
2022-10-06T14:34:53.143Z,50.30
2022-10-06T14:37:20.792Z,52.17
2022-10-06T14:39:51.502Z,51.60
2022-10-06T14:42:24.340Z,49.82
2022-10-06T14:44:52.080Z,52.10
2022-10-06T14:47:19.779Z,50.25
2022-10-06T14:49:48.037Z,50.09
2022-10-06T14:52:15.693Z,49.79
2022-10-06T14:54:43.695Z,51.10
2022-10-06T14:57:11.358Z,51.00
2022-10-06T14:59:40.404Z,50.07
2022-10-06T15:02:08.053Z,50.27
2022-10-06T15:04:35.670Z,49.24
2022-10-06T15:07:23.346Z,50.29
2022-10-06T15:09:50.999Z,49.45
2022-10-06T15:12:18.817Z,49.11
2022-10-06T15:14:47.826Z,49.35
2022-10-06T15:17:15.457Z,49.25
2022-10-06T15:19:43.098Z,49.38
2022-10-06T15:22:10.767Z,49.02
2022-10-06T15:24:38.655Z,50.11
2022-10-06T15:27:25.043Z,50.31
2022-10-06T15:29:54.292Z,50.56
2022-10-06T15:32:22.454Z,50.64
2022-10-06T15:34:51.847Z,50.23
2022-10-06T15:37:19.979Z,48.95
2022-10-06T15:39:47.899Z,49.90
2022-10-06T15:42:18.655Z,49.96
2022-10-06T15:44:46.432Z,49.64
2022-10-06T15:47:15.466Z,50.12
2022-10-06T15:49:43.086Z,49.91
2022-10-06T15:52:12.875Z,49.34
2022-10-06T15:54:41.670Z,49.63
2022-10-06T15:57:15.068Z,49.25
2022-10-06T15:59:45.764Z,49.61
2022-10-06T16:02:16.780Z,50.20
2022-10-06T16:04:57.427Z,51.38
2022-10-06T16:07:25.040Z,50.04
2022-10-06T16:09:52.905Z,50.29
2022-10-06T16:12:22.319Z,49.39
2022-10-06T16:14:50.286Z,50.06
2022-10-06T16:17:19.637Z,49.99
2022-10-06T16:19:47.619Z,49.73
2022-10-06T16:22:16.741Z,50.95
2022-10-06T16:24:44.397Z,50.49
2022-10-06T16:27:12.860Z,50.75
2022-10-06T16:29:40.530Z,50.48
2022-10-06T16:32:08.197Z,51.82
2022-10-06T16:34:37.389Z,50.71
2022-10-06T16:37:04.982Z,50.87
2022-10-06T16:39:32.588Z,51.46
2022-10-06T16:42:00.215Z,51.45
2022-10-06T16:44:27.914Z,52.68
2022-10-06T16:46:55.573Z,53.29
2022-10-06T16:49:24.636Z,52.94
2022-10-06T16:51:53.960Z,52.71
2022-10-06T16:54:21.774Z,52.81
2022-10-06T16:56:52.032Z,54.19
2022-10-06T16:59:21.027Z,54.21
2022-10-06T17:01:49.720Z,54.42
2022-10-06T17:06:39.160Z,55.05
2022-10-06T17:09:08.482Z,55.43
2022-10-06T17:11:36.738Z,55.12
2022-10-06T17:14:05.037Z,55.60
2022-10-06T17:16:35.244Z,55.37
2022-10-06T17:19:03.337Z,55.31
2022-10-06T17:21:48.761Z,55.93
2022-10-06T17:24:19.830Z,55.62
2022-10-06T17:26:49.464Z,55.67
2022-10-06T17:31:41.513Z,56.39
2022-10-06T17:34:11.349Z,56.83
2022-10-06T17:36:39.862Z,57.04
2022-10-06T17:39:09.100Z,56.62
2022-10-06T17:41:39.330Z,57.35
2022-10-06T17:44:08.728Z,57.25
2022-10-06T17:46:40.267Z,57.33
2022-10-06T17:49:09.539Z,57.71
2022-10-06T17:51:40.180Z,57.57
2022-10-06T17:54:12.510Z,57.63
2022-10-06T17:56:40.812Z,57.73
2022-10-06T17:59:11.891Z,57.88
2022-10-06T18:01:41.413Z,57.84
2022-10-06T18:04:09.074Z,58.15
2022-10-06T18:06:37.199Z,57.89
2022-10-06T18:09:06.739Z,58.38
2022-10-06T18:11:35.710Z,58.52
2022-10-06T18:14:05.117Z,58.56
2022-10-06T18:16:36.505Z,58.62
2022-10-06T18:19:07.561Z,58.81
2022-10-06T18:21:37.364Z,58.98
2022-10-06T18:24:06.095Z,58.86
2022-10-06T18:26:36.039Z,59.26
2022-10-06T18:29:03.773Z,59.36
2022-10-06T18:31:31.597Z,59.45
2022-10-06T18:36:50.575Z,59.36
2022-10-06T18:39:18.339Z,59.76
2022-10-06T18:41:46.334Z,59.51
2022-10-06T18:44:14.034Z,59.69
2022-10-06T18:46:55.574Z,59.69
2022-10-06T18:49:25.314Z,60.19
2022-10-06T18:51:58.267Z,59.99
2022-10-06T18:54:30.178Z,59.97
2022-10-06T18:56:58.131Z,59.88
2022-10-06T18:59:27.339Z,60.22
2022-10-06T19:01:56.664Z,60.62
2022-10-06T19:04:25.035Z,60.49
2022-10-06T19:06:56.421Z,60.41
2022-10-06T19:09:25.428Z,60.97
2022-10-06T19:11:55.807Z,60.51
2022-10-06T19:14:25.506Z,60.44
2022-10-06T19:16:56.247Z,60.39
2022-10-06T19:19:26.411Z,60.79
2022-10-06T19:21:59.357Z,60.72
2022-10-06T19:24:29.272Z,60.92
2022-10-06T19:26:57.459Z,60.83
2022-10-06T19:29:26.826Z,61.10
2022-10-06T19:31:56.783Z,61.12
2022-10-06T19:34:25.140Z,61.10
2022-10-06T19:36:53.891Z,61.18
2022-10-06T19:39:24.162Z,60.89
2022-10-06T19:42:09.245Z,61.20
2022-10-06T19:44:42.590Z,61.14
2022-10-06T19:47:12.657Z,61.13
2022-10-06T19:49:40.315Z,61.32
2022-10-06T19:52:10.275Z,61.32
2022-10-06T19:54:39.914Z,61.13
2022-10-06T19:57:08.984Z,61.09
2022-10-06T19:59:36.610Z,61.00
2022-10-06T20:02:05.573Z,61.41
2022-10-06T20:04:33.377Z,61.55
2022-10-06T20:07:01.840Z,61.54
2022-10-06T20:09:31.799Z,61.58
2022-10-06T20:12:02.205Z,61.16
2022-10-06T20:14:30.313Z,61.51
2022-10-06T20:16:58.185Z,61.37
2022-10-06T20:19:26.215Z,61.81
2022-10-06T20:21:54.141Z,61.63
2022-10-06T20:24:23.478Z,61.70
2022-10-06T20:26:51.968Z,61.40
2022-10-06T20:29:22.848Z,61.56
2022-10-06T20:31:52.245Z,61.48
2022-10-06T20:34:21.846Z,61.44
2022-10-06T20:36:55.356Z,61.00
2022-10-06T20:39:41.766Z,61.20
2022-10-06T20:42:14.848Z,61.21
2022-10-06T20:44:45.125Z,61.41
2022-10-06T20:47:13.384Z,61.39
2022-10-06T20:49:42.553Z,61.27
2022-10-06T20:52:10.710Z,61.60
2022-10-06T20:57:09.287Z,61.25
2022-10-06T20:59:37.733Z,61.04
2022-10-06T21:02:06.699Z,61.04
2022-10-06T21:04:34.949Z,61.01
2022-10-06T21:07:03.952Z,61.03
2022-10-06T21:09:31.600Z,61.28
2022-10-06T21:11:59.307Z,61.43
2022-10-06T21:14:29.383Z,61.21
2022-10-06T21:16:56.976Z,60.97
2022-10-06T21:19:25.117Z,60.76
2022-10-06T21:21:55.803Z,60.89
2022-10-06T21:24:23.406Z,60.64
2022-10-06T21:26:52.575Z,60.71
2022-10-06T21:29:20.431Z,60.49
2022-10-06T21:31:49.544Z,60.59
2022-10-06T21:34:17.362Z,60.74
2022-10-06T21:36:45.252Z,60.62
2022-10-06T21:39:13.830Z,59.94
2022-10-06T21:41:41.908Z,60.35
2022-10-06T21:44:10.957Z,60.19
2022-10-06T21:46:40.394Z,60.27
2022-10-06T21:49:11.598Z,60.10
2022-10-06T21:51:39.817Z,59.94
2022-10-06T21:54:07.672Z,59.69
2022-10-06T21:56:35.359Z,59.77
2022-10-06T21:59:03.753Z,59.84
2022-10-06T22:01:32.903Z,59.92
2022-10-06T22:04:01.525Z,60.34
2022-10-06T22:06:31.451Z,60.00
2022-10-06T22:08:59.676Z,60.05
2022-10-06T22:11:28.529Z,60.18
2022-10-06T22:13:57.311Z,60.16
2022-10-06T22:16:26.389Z,60.25
2022-10-06T22:18:54.472Z,60.08
2022-10-06T22:21:23.551Z,59.22
2022-10-06T22:23:56.675Z,59.92
2022-10-06T22:26:25.677Z,59.99
2022-10-06T22:28:54.593Z,59.80
2022-10-06T22:31:25.970Z,59.94
2022-10-06T22:33:55.606Z,59.94
2022-10-06T22:36:23.694Z,60.21
2022-10-06T22:38:51.419Z,60.49
2022-10-06T22:41:20.609Z,60.00
2022-10-06T22:43:48.386Z,59.96
2022-10-06T22:46:16.512Z,60.00
2022-10-06T22:48:44.219Z,59.99
2022-10-06T22:51:11.837Z,59.94
2022-10-06T22:53:39.409Z,60.42
2022-10-06T22:56:07.347Z,60.25
2022-10-06T22:58:36.759Z,60.19
2022-10-06T23:01:10.507Z,60.02
2022-10-06T23:03:38.399Z,60.64
2022-10-06T23:06:08.448Z,59.95
2022-10-06T23:08:36.083Z,59.98
2022-10-06T23:11:07.977Z,59.73
2022-10-06T23:13:37.005Z,60.00
2022-10-06T23:16:07.923Z,60.20
2022-10-06T23:18:37.195Z,60.24
2022-10-06T23:21:05.698Z,60.62
2022-10-06T23:23:33.804Z,60.38
2022-10-06T23:26:06.628Z,60.63
2022-10-06T23:28:34.549Z,60.62
2022-10-06T23:31:04.758Z,60.26
2022-10-06T23:33:33.266Z,60.57
2022-10-06T23:36:02.152Z,60.61
2022-10-06T23:38:29.961Z,60.88
2022-10-06T23:40:57.766Z,60.90
2022-10-06T23:43:25.454Z,60.85
2022-10-06T23:45:53.320Z,61.42
2022-10-06T23:48:22.403Z,61.23
2022-10-06T23:50:57.725Z,61.21
2022-10-06T23:53:25.427Z,61.07
2022-10-06T23:55:53.056Z,61.35
2022-10-06T23:58:22.492Z,61.42
